createdAt,value
2022-12-20T00:01:34.317Z,2.90
2022-12-20T00:04:05.947Z,3.00
2022-12-20T00:06:35.939Z,3.20
2022-12-20T00:09:06.815Z,3.20
2022-12-20T00:11:34.825Z,3.30
2022-12-20T00:14:02.302Z,3.10
2022-12-20T00:16:30.239Z,3.20
2022-12-20T00:19:02.352Z,2.90
2022-12-20T00:21:31.603Z,3.00
2022-12-20T00:23:59.093Z,3.10
2022-12-20T00:26:30.464Z,2.90
2022-12-20T00:31:28.390Z,2.70
2022-12-20T00:33:57.638Z,2.90
2022-12-20T00:36:28.967Z,3.10
2022-12-20T00:41:29.211Z,2.80
2022-12-20T00:43:57.192Z,3.00
2022-12-20T00:46:26.151Z,2.90
2022-12-20T00:48:55.100Z,4.40
2022-12-20T00:51:27.991Z,3.10
2022-12-20T00:53:56.293Z,3.00
2022-12-20T00:56:23.776Z,3.10
2022-12-20T00:58:54.444Z,3.20
2022-12-20T01:01:30.548Z,2.90
2022-12-20T01:03:59.159Z,3.60
2022-12-20T01:06:30.885Z,3.50
2022-12-20T01:08:59.045Z,2.80
2022-12-20T01:11:32.486Z,2.90
2022-12-20T01:14:06.076Z,3.10
2022-12-20T01:16:39.159Z,2.60
2022-12-20T01:19:08.600Z,3.10
2022-12-20T01:21:38.205Z,3.10
2022-12-20T01:24:05.874Z,2.70
2022-12-20T01:26:33.333Z,3.30
2022-12-20T01:29:01.008Z,2.80
2022-12-20T01:31:30.267Z,2.90
2022-12-20T01:33:58.206Z,2.90
2022-12-20T01:36:29.784Z,2.60
2022-12-20T01:39:11.206Z,2.90
2022-12-20T01:44:26.523Z,2.60
2022-12-20T01:46:54.898Z,3.10
2022-12-20T01:49:32.296Z,2.30
2022-12-20T01:52:14.523Z,2.80
2022-12-20T01:54:57.908Z,2.90
2022-12-20T01:57:33.124Z,3.00
2022-12-20T02:00:00.861Z,2.70
2022-12-20T02:02:28.549Z,2.80
2022-12-20T02:04:56.140Z,2.80
2022-12-20T02:07:30.999Z,3.00
2022-12-20T02:10:00.276Z,2.40
2022-12-20T02:12:40.051Z,3.10
2022-12-20T02:15:10.150Z,2.70
2022-12-20T02:17:57.871Z,2.90
2022-12-20T02:21:17.588Z,2.80
2022-12-20T02:24:45.191Z,2.90
2022-12-20T02:27:49.166Z,2.80
2022-12-20T02:30:19.859Z,3.30
2022-12-20T02:33:07.970Z,2.90
2022-12-20T02:35:39.977Z,2.60
2022-12-20T02:38:33.635Z,3.20
2022-12-20T02:41:41.254Z,2.90
2022-12-20T02:44:35.609Z,2.60
2022-12-20T02:47:10.157Z,3.00
2022-12-20T02:49:41.394Z,2.30
2022-12-20T02:52:11.318Z,2.90
2022-12-20T02:54:39.306Z,2.70
2022-12-20T02:57:42.065Z,2.70
2022-12-20T03:00:14.866Z,2.70
2022-12-20T03:03:03.787Z,3.40
2022-12-20T03:05:35.687Z,2.70
2022-12-20T03:08:03.393Z,2.50
2022-12-20T03:10:31.324Z,2.30
2022-12-20T03:12:58.886Z,2.30
2022-12-20T03:15:26.307Z,2.40
2022-12-20T03:17:53.963Z,2.30
2022-12-20T03:20:21.754Z,2.80
2022-12-20T03:22:49.082Z,2.30
2022-12-20T03:25:16.984Z,2.30
2022-12-20T03:27:44.474Z,3.20
2022-12-20T03:30:12.894Z,2.20
2022-12-20T03:32:40.250Z,2.00
2022-12-20T03:35:08.495Z,2.30
2022-12-20T03:37:36.420Z,2.10
2022-12-20T03:40:05.574Z,1.90
2022-12-20T03:42:33.221Z,2.30
2022-12-20T03:45:00.646Z,2.30
2022-12-20T03:47:28.121Z,2.50
2022-12-20T03:49:55.497Z,2.10
2022-12-20T03:52:23.071Z,2.20
2022-12-20T03:54:50.403Z,2.20
2022-12-20T03:57:17.753Z,2.30
2022-12-20T03:59:45.091Z,2.10
2022-12-20T04:02:12.579Z,1.80
2022-12-20T04:04:40.146Z,2.10
2022-12-20T04:07:08.016Z,2.60
2022-12-20T04:09:35.378Z,2.20
2022-12-20T04:12:03.360Z,2.30
2022-12-20T04:14:30.809Z,2.40
2022-12-20T04:16:58.195Z,2.10
2022-12-20T04:19:25.528Z,2.10
2022-12-20T04:21:52.926Z,2.30
2022-12-20T04:24:20.240Z,1.90
2022-12-20T04:26:49.280Z,1.90
2022-12-20T04:29:16.944Z,2.10
2022-12-20T04:31:44.476Z,1.90
2022-12-20T04:34:11.909Z,2.10
2022-12-20T04:36:39.272Z,1.90
2022-12-20T04:39:06.743Z,1.80
2022-12-20T04:41:34.076Z,2.00
2022-12-20T04:44:01.531Z,1.90
2022-12-20T04:46:29.174Z,2.20
2022-12-20T04:48:58.910Z,2.00
2022-12-20T04:51:28.181Z,1.90
2022-12-20T04:53:56.663Z,1.90
2022-12-20T04:56:28.542Z,2.00
2022-12-20T04:58:59.199Z,2.10
2022-12-20T05:01:27.392Z,2.00
2022-12-20T05:03:55.336Z,1.50
2022-12-20T05:06:22.980Z,1.80
2022-12-20T05:08:50.523Z,1.80
2022-12-20T05:11:17.979Z,1.90
2022-12-20T05:13:45.361Z,2.20
2022-12-20T05:16:13.957Z,1.70
2022-12-20T05:18:48.560Z,1.80
2022-12-20T05:21:35.321Z,1.80
2022-12-20T05:24:21.386Z,1.90
2022-12-20T05:26:48.818Z,1.80
2022-12-20T05:29:17.000Z,1.80
2022-12-20T05:31:44.518Z,1.60
2022-12-20T05:34:11.991Z,1.70
2022-12-20T05:36:39.339Z,1.60
2022-12-20T05:39:07.000Z,1.80
2022-12-20T05:41:34.560Z,1.90
2022-12-20T05:44:01.963Z,2.20
2022-12-20T05:46:29.442Z,1.80
2022-12-20T05:48:56.940Z,1.70
2022-12-20T05:51:24.591Z,2.00
2022-12-20T05:53:52.101Z,1.40
2022-12-20T05:56:19.482Z,1.90
2022-12-20T05:58:46.860Z,1.70
2022-12-20T06:01:14.295Z,1.60
2022-12-20T06:03:41.839Z,2.20
2022-12-20T06:06:13.875Z,2.80
2022-12-20T06:08:43.143Z,1.90
2022-12-20T06:11:10.687Z,2.10
2022-12-20T06:13:38.127Z,1.80
2022-12-20T06:16:05.757Z,2.10
2022-12-20T06:18:33.182Z,2.00
2022-12-20T06:21:00.521Z,2.00
2022-12-20T06:23:27.929Z,1.80
2022-12-20T06:25:55.444Z,1.70
2022-12-20T06:28:23.007Z,1.90
2022-12-20T06:30:55.397Z,1.70
2022-12-20T06:33:22.973Z,2.00
2022-12-20T06:35:51.042Z,2.00
2022-12-20T06:38:18.981Z,1.90
2022-12-20T06:40:46.417Z,1.80
2022-12-20T06:43:13.818Z,1.90
2022-12-20T06:45:42.129Z,2.10
2022-12-20T06:48:11.471Z,2.00
2022-12-20T06:50:39.639Z,2.20
2022-12-20T06:53:07.179Z,2.00
2022-12-20T06:55:34.688Z,1.80
2022-12-20T06:58:03.897Z,2.30
2022-12-20T07:00:32.260Z,1.90
2022-12-20T07:02:59.779Z,2.00
2022-12-20T07:05:27.608Z,2.10
2022-12-20T07:07:55.278Z,1.90
2022-12-20T07:10:22.932Z,2.20
2022-12-20T07:12:52.863Z,2.00
2022-12-20T07:15:22.197Z,1.80
2022-12-20T07:17:49.566Z,2.20
2022-12-20T07:20:17.695Z,2.20
2022-12-20T07:22:48.386Z,2.40
2022-12-20T07:25:16.171Z,2.00
2022-12-20T07:27:46.375Z,2.50
2022-12-20T07:30:14.816Z,1.80
2022-12-20T07:32:42.312Z,2.40
2022-12-20T07:35:11.596Z,2.30
2022-12-20T07:37:39.191Z,2.00
2022-12-20T07:40:08.765Z,2.30
2022-12-20T07:42:39.092Z,1.90
2022-12-20T07:45:09.706Z,2.40
2022-12-20T07:47:37.100Z,1.80
2022-12-20T07:50:06.067Z,2.10
2022-12-20T07:52:35.314Z,2.20
2022-12-20T07:55:06.172Z,2.20
2022-12-20T07:57:49.581Z,2.20
2022-12-20T08:00:19.047Z,1.90
2022-12-20T08:02:55.022Z,2.30
2022-12-20T08:05:23.273Z,2.00
2022-12-20T08:07:56.854Z,2.10
2022-12-20T08:10:27.756Z,2.40
2022-12-20T08:12:55.789Z,2.40
2022-12-20T08:15:23.662Z,1.90
2022-12-20T08:17:51.950Z,2.10
2022-12-20T08:20:19.661Z,2.10
2022-12-20T08:22:47.111Z,2.00
2022-12-20T08:25:14.513Z,2.00
2022-12-20T08:27:42.212Z,2.00
2022-12-20T08:30:10.884Z,2.80
2022-12-20T08:32:38.441Z,2.20
2022-12-20T08:35:07.243Z,2.50
2022-12-20T08:37:35.195Z,2.40
2022-12-20T08:40:02.622Z,2.10
2022-12-20T08:42:30.285Z,2.10
2022-12-20T08:44:57.608Z,1.90
2022-12-20T08:47:25.028Z,2.00
2022-12-20T08:49:52.782Z,2.20
2022-12-20T08:52:20.274Z,2.40
2022-12-20T08:54:47.648Z,3.50
2022-12-20T08:57:15.122Z,2.80
2022-12-20T08:59:42.493Z,2.10
2022-12-20T09:02:09.965Z,2.40
2022-12-20T09:04:37.614Z,2.20
2022-12-20T09:07:05.100Z,2.60
2022-12-20T09:09:32.561Z,2.20
2022-12-20T09:12:00.005Z,2.20
2022-12-20T09:14:27.771Z,2.70
2022-12-20T09:16:55.184Z,2.50
2022-12-20T09:19:23.192Z,2.10
2022-12-20T09:21:50.583Z,2.30
2022-12-20T09:24:18.335Z,2.00
2022-12-20T09:26:45.972Z,2.20
2022-12-20T09:29:24.981Z,2.30
2022-12-20T09:31:54.594Z,2.80
2022-12-20T09:34:22.055Z,2.20
2022-12-20T09:36:49.879Z,2.20
2022-12-20T09:39:17.287Z,2.30
2022-12-20T09:41:45.144Z,2.40
2022-12-20T09:44:31.223Z,2.70
2022-12-20T09:47:11.060Z,1.90
2022-12-20T09:49:43.643Z,2.20
2022-12-20T09:52:45.357Z,2.40
2022-12-20T09:58:28.626Z,2.20
2022-12-20T10:00:56.083Z,2.50
2022-12-20T10:03:29.514Z,2.40
2022-12-20T10:06:41.546Z,2.20
2022-12-20T10:09:43.329Z,1.90
2022-12-20T10:12:34.371Z,2.30
2022-12-20T10:15:28.934Z,2.10
2022-12-20T10:18:20.833Z,2.30
2022-12-20T10:21:14.153Z,2.50
2022-12-20T10:24:01.647Z,2.50
2022-12-20T10:26:32.340Z,2.10
2022-12-20T10:28:59.753Z,2.50
2022-12-20T10:31:27.884Z,3.90
2022-12-20T10:33:56.230Z,2.90
2022-12-20T10:36:32.489Z,2.30
2022-12-20T10:39:03.897Z,2.40
2022-12-20T10:44:15.888Z,2.50
2022-12-20T10:46:55.061Z,2.50
2022-12-20T10:49:31.410Z,3.10
2022-12-20T10:52:19.195Z,2.70
2022-12-20T10:54:47.693Z,2.80
2022-12-20T10:57:29.212Z,2.50
2022-12-20T11:02:41.656Z,3.90
2022-12-20T11:05:10.562Z,2.40
2022-12-20T11:10:46.744Z,2.50
2022-12-20T11:13:26.805Z,2.80
2022-12-20T11:15:57.839Z,2.20
2022-12-20T11:18:47.184Z,2.80
2022-12-20T11:21:48.782Z,2.60
2022-12-20T11:24:43.687Z,3.00
2022-12-20T11:27:32.356Z,2.90
2022-12-20T11:30:08.256Z,2.90
2022-12-20T11:33:07.134Z,3.20
2022-12-20T11:35:47.123Z,6.80
2022-12-20T11:38:55.717Z,3.10
2022-12-20T11:41:34.090Z,3.00
2022-12-20T11:44:25.324Z,3.30
2022-12-20T11:47:33.598Z,3.90
2022-12-20T11:50:46.017Z,3.40
2022-12-20T11:53:27.609Z,3.30
2022-12-20T11:56:04.189Z,3.30
2022-12-20T11:58:56.137Z,3.00
2022-12-20T12:01:36.380Z,3.40
2022-12-20T12:04:15.780Z,2.70
2022-12-20T12:06:56.996Z,3.10
2022-12-20T12:09:33.016Z,2.80
2022-12-20T12:12:22.844Z,2.80
2022-12-20T12:15:16.972Z,2.60
2022-12-20T12:17:52.680Z,3.10
2022-12-20T12:20:41.248Z,3.90
2022-12-20T12:23:24.788Z,3.40
2022-12-20T12:25:52.509Z,3.60
2022-12-20T12:28:22.261Z,3.20
2022-12-20T12:31:05.038Z,3.40
2022-12-20T12:33:44.641Z,3.40
2022-12-20T12:36:34.018Z,3.20
2022-12-20T12:39:24.148Z,2.90
2022-12-20T12:42:10.712Z,3.50
2022-12-20T12:45:03.826Z,3.30
2022-12-20T12:47:46.109Z,3.10
2022-12-20T12:50:29.479Z,3.30
2022-12-20T12:53:07.745Z,2.80
2022-12-20T12:55:50.731Z,3.20
2022-12-20T12:58:24.086Z,3.30
2022-12-20T13:01:11.644Z,3.60
2022-12-20T13:03:42.207Z,4.80
2022-12-20T13:06:31.040Z,3.00
2022-12-20T13:08:58.375Z,2.90
2022-12-20T13:11:33.135Z,2.50
2022-12-20T13:14:27.778Z,2.90
2022-12-20T13:17:24.102Z,2.80
2022-12-20T13:19:55.802Z,3.10
2022-12-20T13:22:27.150Z,3.00
2022-12-20T13:27:33.666Z,2.80
2022-12-20T13:30:07.171Z,3.10
2022-12-20T13:32:46.806Z,2.80
2022-12-20T13:35:26.165Z,2.80
2022-12-20T13:38:09.703Z,3.00
2022-12-20T13:41:01.259Z,3.20
2022-12-20T13:46:10.868Z,3.00
2022-12-20T13:48:40.004Z,3.00
2022-12-20T13:51:08.193Z,2.80
2022-12-20T13:53:36.132Z,3.10
2022-12-20T13:56:28.072Z,3.50
2022-12-20T13:58:58.743Z,2.90
2022-12-20T14:01:27.063Z,3.30
2022-12-20T14:03:55.131Z,2.90
2022-12-20T14:06:27.141Z,3.60
2022-12-20T14:08:54.790Z,3.80
2022-12-20T14:11:29.058Z,3.50
2022-12-20T14:14:03.195Z,3.60
2022-12-20T14:16:32.886Z,4.00
2022-12-20T14:19:06.361Z,4.00
2022-12-20T14:21:45.125Z,4.10
2022-12-20T14:24:21.515Z,3.30
2022-12-20T14:26:52.690Z,3.30
2022-12-20T14:29:29.170Z,3.40
2022-12-20T14:31:57.308Z,3.40
2022-12-20T14:34:30.031Z,2.90
2022-12-20T14:37:34.782Z,2.80
2022-12-20T14:40:11.301Z,3.10
2022-12-20T14:42:40.763Z,3.20
2022-12-20T14:45:10.983Z,3.10
2022-12-20T14:47:49.022Z,3.10
2022-12-20T14:50:37.866Z,3.00
2022-12-20T14:53:20.309Z,3.60
2022-12-20T14:55:47.839Z,3.40
2022-12-20T14:58:41.450Z,3.30
2022-12-20T15:01:15.110Z,3.50
2022-12-20T15:03:53.884Z,2.70
2022-12-20T15:06:51.167Z,3.80
2022-12-20T15:09:19.726Z,3.50
2022-12-20T15:11:48.480Z,3.60
2022-12-20T15:14:48.404Z,4.00
2022-12-20T15:17:16.179Z,3.30
2022-12-20T15:19:44.283Z,3.50
2022-12-20T15:22:17.899Z,3.50
2022-12-20T15:24:45.358Z,3.90
2022-12-20T15:27:14.391Z,3.50
2022-12-20T15:29:43.353Z,3.20
2022-12-20T15:32:29.541Z,3.90
2022-12-20T15:34:57.017Z,3.20
2022-12-20T15:37:24.382Z,3.50
2022-12-20T15:39:51.781Z,3.70
2022-12-20T15:42:20.866Z,3.80
2022-12-20T15:44:48.297Z,4.20
2022-12-20T15:47:16.996Z,4.00
2022-12-20T15:49:49.753Z,4.50
2022-12-20T15:52:23.932Z,3.80
2022-12-20T15:54:51.611Z,3.60
2022-12-20T15:57:19.069Z,3.60
2022-12-20T16:00:03.677Z,4.10
2022-12-20T16:02:32.846Z,4.50
2022-12-20T16:05:01.562Z,4.50
2022-12-20T16:07:29.095Z,4.30
2022-12-20T16:09:56.685Z,4.70
2022-12-20T16:12:32.608Z,3.70
2022-12-20T16:15:00.208Z,3.80
2022-12-20T16:17:27.619Z,3.90
2022-12-20T16:19:55.592Z,3.70
2022-12-20T16:22:24.217Z,4.10
2022-12-20T16:24:51.995Z,4.30
2022-12-20T16:27:20.524Z,4.00
2022-12-20T16:29:48.111Z,5.10
2022-12-20T16:32:19.008Z,4.50
2022-12-20T16:34:49.044Z,3.70
2022-12-20T16:37:16.767Z,3.70
2022-12-20T16:39:44.561Z,3.60
2022-12-20T16:42:17.688Z,4.60
2022-12-20T16:44:46.147Z,3.90
2022-12-20T16:47:14.952Z,3.80
2022-12-20T16:49:51.789Z,4.00
2022-12-20T16:52:23.840Z,4.40
2022-12-20T16:54:51.929Z,3.90
2022-12-20T16:57:21.451Z,4.00
2022-12-20T16:59:49.277Z,4.20
2022-12-20T17:02:31.562Z,4.30
2022-12-20T17:04:59.671Z,4.50
2022-12-20T17:07:27.155Z,4.40
2022-12-20T17:09:54.739Z,4.70
2022-12-20T17:12:23.112Z,4.60
2022-12-20T17:14:50.666Z,4.20
2022-12-20T17:17:18.107Z,5.00
2022-12-20T17:19:45.510Z,5.20
2022-12-20T17:22:25.736Z,5.30
2022-12-20T17:24:53.332Z,5.40
2022-12-20T17:27:21.196Z,5.20
2022-12-20T17:29:51.049Z,5.60
2022-12-20T17:32:25.603Z,5.50
2022-12-20T17:34:56.132Z,5.80
2022-12-20T17:37:25.525Z,6.10
2022-12-20T17:39:53.023Z,6.40
2022-12-20T17:42:24.263Z,6.30
2022-12-20T17:44:54.925Z,5.50
2022-12-20T17:47:22.514Z,5.70
2022-12-20T17:49:49.887Z,6.20
2022-12-20T17:52:17.285Z,6.30
2022-12-20T17:54:44.907Z,7.00
2022-12-20T17:57:16.527Z,7.50
2022-12-20T17:59:45.033Z,7.20
2022-12-20T18:02:25.329Z,7.20
2022-12-20T18:04:53.340Z,6.80
2022-12-20T18:07:20.795Z,6.30
2022-12-20T18:09:49.204Z,6.20
2022-12-20T18:12:17.766Z,6.60
2022-12-20T18:14:45.328Z,6.90
2022-12-20T18:17:12.931Z,6.50
2022-12-20T18:19:41.039Z,6.30
2022-12-20T18:22:08.463Z,6.10
2022-12-20T18:24:35.878Z,5.80
2022-12-20T18:27:03.418Z,6.00
2022-12-20T18:29:31.340Z,5.50
2022-12-20T18:31:58.918Z,5.50
2022-12-20T18:34:26.386Z,5.90
2022-12-20T18:36:53.730Z,7.30
2022-12-20T18:39:21.179Z,6.30
2022-12-20T18:41:48.639Z,5.80
2022-12-20T18:44:16.168Z,5.90
2022-12-20T18:46:43.649Z,5.60
2022-12-20T18:49:11.146Z,6.40
2022-12-20T18:51:38.610Z,6.00
2022-12-20T18:54:09.782Z,6.10
2022-12-20T18:56:38.755Z,5.70
2022-12-20T18:59:12.136Z,5.70
2022-12-20T19:01:41.979Z,7.10
2022-12-20T19:04:10.777Z,6.00
2022-12-20T19:06:38.900Z,5.50
2022-12-20T19:09:11.544Z,6.00
2022-12-20T19:11:39.972Z,5.70
2022-12-20T19:14:08.725Z,7.00
2022-12-20T19:16:39.687Z,5.60
2022-12-20T19:19:10.107Z,5.50
2022-12-20T19:21:42.015Z,6.00
2022-12-20T19:24:11.788Z,4.70
2022-12-20T19:26:42.705Z,4.50
2022-12-20T19:29:11.755Z,4.30
2022-12-20T19:31:39.955Z,4.70
2022-12-20T19:34:12.222Z,4.70
2022-12-20T19:36:43.740Z,4.20
2022-12-20T19:39:22.215Z,4.30
2022-12-20T19:42:21.505Z,3.90
2022-12-20T19:44:38.613Z,4.90
2022-12-20T19:47:06.258Z,5.20
2022-12-20T19:49:36.370Z,5.20
2022-12-20T19:52:06.022Z,5.20
2022-12-20T19:54:34.412Z,5.20
2022-12-20T19:57:02.175Z,6.50
2022-12-20T19:59:30.854Z,5.40
2022-12-20T20:01:58.579Z,6.40
2022-12-20T20:04:26.355Z,5.90
2022-12-20T20:06:53.811Z,6.70
2022-12-20T20:09:21.313Z,6.30
2022-12-20T20:11:48.613Z,6.10
2022-12-20T20:14:16.055Z,6.00
2022-12-20T20:16:44.154Z,5.40
2022-12-20T20:19:11.699Z,4.80
2022-12-20T20:21:39.397Z,4.60
2022-12-20T20:24:08.710Z,4.50
2022-12-20T20:26:36.186Z,3.90
2022-12-20T20:29:04.388Z,4.00
2022-12-20T20:31:31.780Z,4.40
2022-12-20T20:33:59.376Z,4.40
2022-12-20T20:36:26.756Z,4.30
2022-12-20T20:38:54.166Z,5.10
2022-12-20T20:41:22.617Z,4.40
2022-12-20T20:43:50.230Z,4.70
2022-12-20T20:46:18.512Z,5.00
2022-12-20T20:48:46.375Z,4.50
2022-12-20T20:51:14.586Z,5.40
2022-12-20T20:53:42.169Z,6.70
2022-12-20T20:56:10.705Z,5.90
2022-12-20T20:58:38.740Z,6.50
2022-12-20T21:01:08.847Z,6.50
2022-12-20T21:03:37.438Z,5.50
2022-12-20T21:06:39.320Z,5.10
2022-12-20T21:08:54.817Z,5.10
2022-12-20T21:11:22.637Z,5.30
2022-12-20T21:13:50.421Z,4.90
2022-12-20T21:16:22.518Z,4.70
2022-12-20T21:18:55.545Z,5.50
2022-12-20T21:21:24.653Z,5.60
2022-12-20T21:23:53.272Z,5.40
2022-12-20T21:26:22.184Z,5.40
2022-12-20T21:28:49.742Z,5.60
2022-12-20T21:31:19.715Z,5.50
2022-12-20T21:33:47.336Z,5.40
2022-12-20T21:36:17.998Z,4.90
2022-12-20T21:38:51.193Z,5.60
2022-12-20T21:41:20.926Z,5.00
2022-12-20T21:43:48.395Z,5.70
2022-12-20T21:46:16.212Z,4.90
2022-12-20T21:48:44.758Z,5.60
2022-12-20T21:51:18.179Z,5.50
2022-12-20T21:53:48.289Z,6.10
2022-12-20T21:56:16.151Z,6.70
2022-12-20T21:58:44.617Z,5.60
2022-12-20T22:01:14.413Z,6.20
2022-12-20T22:03:42.592Z,6.10
2022-12-20T22:06:10.928Z,6.40
2022-12-20T22:08:38.651Z,6.10
2022-12-20T22:11:10.781Z,5.90
2022-12-20T22:13:41.797Z,5.50
2022-12-20T22:16:19.148Z,5.20
2022-12-20T22:18:51.852Z,5.90
2022-12-20T22:21:24.040Z,5.60
2022-12-20T22:23:51.835Z,5.40
2022-12-20T22:26:22.965Z,5.10
2022-12-20T22:29:03.302Z,5.00
2022-12-20T22:31:31.020Z,5.20
2022-12-20T22:34:00.198Z,4.90
2022-12-20T22:36:28.822Z,4.90
2022-12-20T22:38:57.336Z,4.50
2022-12-20T22:41:35.048Z,5.00
2022-12-20T22:44:03.582Z,4.30
2022-12-20T22:49:18.291Z,4.80
2022-12-20T22:51:53.684Z,5.00
2022-12-20T22:54:30.084Z,4.60
2022-12-20T22:56:57.525Z,4.50
2022-12-20T22:59:24.901Z,5.20
2022-12-20T23:01:52.494Z,4.50
2022-12-20T23:04:20.143Z,5.20
2022-12-20T23:06:47.494Z,4.30
2022-12-20T23:09:14.790Z,5.20
2022-12-20T23:12:01.562Z,4.90
2022-12-20T23:14:47.549Z,5.00
2022-12-20T23:17:14.833Z,4.60
2022-12-20T23:20:00.897Z,5.10
2022-12-20T23:22:41.017Z,5.10
2022-12-20T23:25:21.218Z,5.80
2022-12-20T23:27:50.537Z,6.00
2022-12-20T23:30:22.728Z,5.40
2022-12-20T23:32:51.256Z,6.50
2022-12-20T23:35:20.332Z,5.60
2022-12-20T23:37:48.778Z,4.90
2022-12-20T23:40:17.243Z,4.80
2022-12-20T23:42:45.831Z,4.60
2022-12-20T23:45:13.990Z,5.60
2022-12-20T23:47:41.347Z,5.10
2022-12-20T23:50:12.195Z,5.70
2022-12-20T23:52:40.558Z,5.40
2022-12-20T23:55:08.364Z,6.10
2022-12-20T23:57:35.703Z,5.00
